EYKS weather

S. Darius and S. Gir─Śnas Airport
Kaunas, Kaunas County, Lithuania

Public forecast

Using degrees Celsius for public forecast. Weather courtesy of forecast.io.

METAR (pilot weather report)

Closest report is Kaunas International Airport, 8.6 nm (16.0 km) NE. Retrieved 2018/02/23 08:20 UTC (18 minutes ago):

EYKA 230820Z 00000KT 9000 SCT020 M14/M17 Q1027 R08/090095

TAF (pilot weather forecast)

Forecast is more than 12 hours old.

Closest forecast is Kaunas International Airport, 8.6 nm (16.0 km) NE. Retrieved 2018/02/22 00:12 UTC (1 day ago):

TAF TAF EYKA 222303Z 2300/2324 VRB02KT 5000 BR SCT025 TEMPO 2300/2306 2000 BKN002 BECMG 2306/2308 9000